»·PEaware :: QXE2249 KMMH-KSAN

QXE2249 :: KMMH-KSAN

FLIGHT INFORMATION

Flight Status: Arrived
Operator:
Horizon Air
More flights by this operator :: More flights under this callsign
Pilot: Kyle A. (14988)
Aircraft: DEHAVILLAND DASH 8 400
(DH8D)
More flights by this aircraft type
Origin: KMMH Mammoth Yosemite
United States
Destination: KSAN San Diego Intl-Lindbergh
United States
More flights between these airports :: More routes between these airports
Route: +CROLI1 EHF V165 LHS V459 DARTS LAX V25 PACIF V208 LAX118 CARDI MZB320 MZB
File this flight plan on PilotEdge
Remarks:
Altitude:
(Current/Filed)
24,000ft
Speed:
(Current/Filed)
404kts
Departed: 23-Feb-18 01:50 PM
Arrived: 23-Feb-18 03:03 PM
Distance/Time
Traveled:
304nm/1:13
Distance/Time
To Go:
Arrived

Flight Plot

Page will automatically refresh every two minutes.

Flight plan parsing failed; only flown route is shown


Map Options




Map Legend


Flown Route
Filed Route
Departure Airport
Arrival Airport
Navaid (VOR, NDB)
Fix

Horizontal Profiles

Position Reports

Time Latitude Longitude Heading Altitude Ground
Speed
23-Feb-18 13:38 37.626612 -118.842336 18 7135ft 0kts
23-Feb-18 13:39 37.626612 -118.842336 18 7135ft 0kts
23-Feb-18 13:40 37.626612 -118.842336 18 7135ft 0kts
23-Feb-18 13:41 37.626612 -118.842336 18 7135ft 0kts
23-Feb-18 13:42 37.626612 -118.842336 18 7135ft 0kts
23-Feb-18 13:43 37.626612 -118.842336 18 7135ft 0kts
23-Feb-18 13:44 37.626612 -118.842336 18 7135ft 0kts
23-Feb-18 13:45 37.626612 -118.842336 18 7135ft 0kts
23-Feb-18 13:46 37.626612 -118.842336 18 7135ft 0kts
23-Feb-18 13:47 37.626612 -118.842336 18 7135ft 0kts
23-Feb-18 13:48 37.626612 -118.842336 18 7135ft 0kts
23-Feb-18 13:49 37.626612 -118.842336 18 7135ft 0kts
23-Feb-18 13:50 37.626612 -118.842336 18 7135ft 0kts
23-Feb-18 13:51 37.626612 -118.842336 18 7135ft 0kts
23-Feb-18 13:52 37.626612 -118.842336 18 7135ft 0kts
23-Feb-18 13:53 37.626612 -118.842336 18 7135ft 0kts
23-Feb-18 13:54 37.626353 -118.842366 123 7135ft 0kts
23-Feb-18 13:55 37.624244 -118.836301 110 7135ft 32kts
23-Feb-18 13:56 37.621673 -118.827204 139 7135ft 10kts
23-Feb-18 13:57 37.622827 -118.834400 289 7135ft 92kts
23-Feb-18 13:58 37.632693 -118.879739 285 8411ft 158kts
23-Feb-18 13:59 37.665130 -118.894257 46 10434ft 194kts
23-Feb-18 14:00 37.673153 -118.823879 79 12887ft 214kts
23-Feb-18 14:01 37.676401 -118.748827 77 14856ft 223kts
23-Feb-18 14:02 37.675980 -118.667714 104 16047ft 275kts
23-Feb-18 14:03 37.625382 -118.594952 156 17308ft 303kts
23-Feb-18 14:04 37.548849 -118.614069 226 18523ft 291kts
23-Feb-18 14:05 37.524156 -118.698720 278 19667ft 262kts
23-Feb-18 14:06 37.524338 -118.787763 282 20730ft 263kts
23-Feb-18 14:07 37.480170 -118.866641 208 21573ft 336kts
23-Feb-18 14:08 37.386941 -118.882507 188 22437ft 355kts
23-Feb-18 14:09 37.291467 -118.892414 189 23875ft 364kts
23-Feb-18 14:10 37.190402 -118.904312 190 24194ft 382kts
23-Feb-18 14:11 37.085109 -118.916786 190 24226ft 399kts
23-Feb-18 14:12 36.977118 -118.929221 190 24252ft 402kts
23-Feb-18 14:13 36.868268 -118.941574 190 24271ft 402kts
23-Feb-18 14:14 36.760104 -118.954033 190 24291ft 402kts
23-Feb-18 14:15 36.651166 -118.966446 190 24316ft 402kts
23-Feb-18 14:16 36.543370 -118.978652 190 24325ft 402kts
23-Feb-18 14:17 36.436140 -118.990788 191 24330ft 402kts
23-Feb-18 14:18 36.327689 -119.003206 191 24327ft 402kts
23-Feb-18 14:19 36.218998 -119.015255 191 24336ft 402kts
23-Feb-18 14:20 36.111202 -119.027432 191 24338ft 402kts
23-Feb-18 14:21 36.002860 -119.039685 191 24339ft 402kts
23-Feb-18 14:22 35.894471 -119.050796 193 24339ft 400kts
23-Feb-18 14:23 35.788142 -119.063786 193 24342ft 399kts
23-Feb-18 14:24 35.694795 -119.073951 193 24344ft 398kts
23-Feb-18 14:25 35.611718 -119.083142 194 24341ft 397kts
23-Feb-18 14:26 35.502480 -119.093757 184 24328ft 404kts
23-Feb-18 14:27 35.411029 -119.018756 124 24334ft 415kts
23-Feb-18 14:28 35.329520 -118.920044 138 24323ft 417kts
23-Feb-18 14:29 35.244802 -118.825470 136 24295ft 416kts
23-Feb-18 14:30 35.158776 -118.739519 163 24254ft 407kts
23-Feb-18 14:31 35.051671 -118.710152 170 24237ft 403kts
23-Feb-18 14:32 34.946704 -118.670459 170 24227ft 403kts
23-Feb-18 14:33 34.841915 -118.633270 171 24219ft 403kts
23-Feb-18 14:34 34.736208 -118.595695 171 24215ft 404kts
23-Feb-18 14:35 34.647303 -118.559195 160 24219ft 413kts
23-Feb-18 14:36 34.547176 -118.496342 160 24226ft 413kts
23-Feb-18 14:37 34.446551 -118.438024 163 24235ft 411kts
23-Feb-18 14:38 34.345343 -118.379423 162 24239ft 413kts
23-Feb-18 14:39 34.261164 -118.330187 163 24252ft 412kts
23-Feb-18 14:40 34.159360 -118.271357 164 24218ft 412kts
23-Feb-18 14:41 34.076552 -118.223443 164 24214ft 412kts
23-Feb-18 14:42 33.992529 -118.175015 164 24214ft 411kts
23-Feb-18 14:43 33.891366 -118.116490 164 24211ft 412kts
23-Feb-18 14:44 33.812509 -118.068489 163 23491ft 407kts
23-Feb-18 14:45 33.714179 -118.008645 163 22326ft 398kts
23-Feb-18 14:46 33.619492 -117.951184 162 20911ft 388kts
23-Feb-18 14:47 33.527706 -117.895600 162 19504ft 377kts
23-Feb-18 14:48 33.438423 -117.841519 161 18099ft 366kts
23-Feb-18 14:49 33.350121 -117.787850 160 16712ft 353kts
23-Feb-18 14:50 33.271930 -117.723111 124 15277ft 352kts
23-Feb-18 14:51 33.229703 -117.624343 117 14135ft 335kts
23-Feb-18 14:52 33.185993 -117.556600 148 13405ft 325kts
23-Feb-18 14:53 33.113076 -117.496997 149 12087ft 326kts
23-Feb-18 14:54 33.042164 -117.439010 149 10684ft 306kts
23-Feb-18 14:55 32.978340 -117.386414 148 9922ft 268kts
23-Feb-18 14:56 32.928251 -117.345746 148 8220ft 256kts
23-Feb-18 14:57 32.871107 -117.298707 147 6999ft 247kts
23-Feb-18 14:58 32.827306 -117.243444 103 6991ft 234kts
23-Feb-18 14:59 32.812634 -117.170788 102 6970ft 223kts
23-Feb-18 15:00 32.798703 -117.101064 101 6970ft 216kts
23-Feb-18 15:01 32.785038 -117.032021 102 6980ft 222kts
23-Feb-18 15:02 32.770834 -116.959589 102 6983ft 234kts
23-Feb-18 15:03 32.737442 -116.902685 181 6417ft 219kts
23-Feb-18 15:04 32.679703 -116.910652 214 4973ft 179kts
23-Feb-18 15:05 32.678733 -116.955976 283 4388ft 144kts
23-Feb-18 15:06 32.689160 -117.009235 284 3731ft 197kts
23-Feb-18 15:07 32.704427 -117.076064 286 2545ft 222kts
23-Feb-18 15:08 32.720123 -117.134544 288 1040ft 148kts
23-Feb-18 15:09 32.729502 -117.173304 288 156ft 102kts
23-Feb-18 15:10 32.734354 -117.192917 285 22ft 18kts
23-Feb-18 15:11 32.734081 -117.195833 270 22ft 0kts
23-Feb-18 15:12 32.734081 -117.195833 270 22ft 0kts
23-Feb-18 15:13 32.734295 -117.196872 285 22ft 18kts
23-Feb-18 15:14 32.734166 -117.199661 196 22ft 6kts
23-Feb-18 15:15 32.733029 -117.199159 96 22ft 4kts
23-Feb-18 15:16 32.733008 -117.198901 94 22ft 0kts
23-Feb-18 15:17 32.733008 -117.198901 94 22ft 0kts
23-Feb-18 15:18 32.733008 -117.198901 94 22ft 0kts
23-Feb-18 15:19 32.733008 -117.198901 94 22ft 0kts
23-Feb-18 15:20 32.733008 -117.198901 94 22ft 0kts
23-Feb-18 15:21 32.733008 -117.198901 94 22ft 0kts
23-Feb-18 15:22 32.733008 -117.198901 94 22ft 0kts
23-Feb-18 15:23 32.733008 -117.198901 94 22ft 0kts
23-Feb-18 15:24 32.733008 -117.198901 94 22ft 0kts

Navigation Log

Ident Type
Flight plan parsing failed, navigation log unavailable